Weather at Catalina Airport

Public forecast

Using degrees Fahrenheit for public forecast. Weather courtesy of forecast.io.

Current aviation weather report (METAR) for Catalina Airport

Report is more than 6 hours old.

Retrieved 2021/10/12 17:51 UTC (3 days ago):

KAVX 121751Z AUTO 30008KT 10SM CLR 14/M01 A2995 RMK AO2 SLP135 T01441006 10150 20117 51012

Closest aviation forecast (TAF) to Catalina Airport

Closest forecast is Long Beach Airport (Daugherty Field), 28.1 nm (52.0 km) NNE. Retrieved 2021-10-16 00:42 UTC (4 hours ago):

TAF KLGB 152340Z 1600/1624 29009KT P6SM SKC FM160400 VRB03KT P6SM SKC